createdAt,value
2022-11-02T00:00:48.896Z,101336.81
2022-11-02T00:03:16.800Z,101352.13
2022-11-02T00:05:44.723Z,101349.44
2022-11-02T00:08:12.592Z,101355.53
2022-11-02T00:10:40.487Z,101354.44
2022-11-02T00:13:08.379Z,101361.22
2022-11-02T00:15:37.638Z,101361.91
2022-11-02T00:18:06.775Z,101363.41
2022-11-02T00:20:35.140Z,101378.16
2022-11-02T00:23:03.279Z,101375.41
2022-11-02T00:25:31.399Z,101384.13
2022-11-02T00:27:59.324Z,101382.25
2022-11-02T00:30:27.187Z,101384.06
2022-11-02T00:32:57.087Z,101379.66
2022-11-02T00:35:24.977Z,101371.63
2022-11-02T00:37:52.829Z,101384.31
2022-11-02T00:40:20.852Z,101387.91
2022-11-02T00:42:48.844Z,101393.44
2022-11-02T00:45:17.306Z,101393.47
2022-11-02T00:47:45.175Z,101386.41
2022-11-02T00:50:14.466Z,101393.56
2022-11-02T00:52:42.557Z,101391.75
2022-11-02T00:55:11.342Z,101392.47
2022-11-02T00:57:39.856Z,101393.34
2022-11-02T01:00:09.992Z,101390.97
2022-11-02T01:02:37.981Z,101403.81
2022-11-02T01:05:06.984Z,101397.50
2022-11-02T01:07:37.557Z,101415.22
2022-11-02T01:10:06.103Z,101404.47
2022-11-02T01:12:34.019Z,101411.38
2022-11-02T01:15:03.407Z,101415.63
2022-11-02T01:17:31.319Z,101410.84
2022-11-02T01:19:59.327Z,101415.13
2022-11-02T01:22:27.211Z,101426.72
2022-11-02T01:24:56.608Z,101417.00
2022-11-02T01:27:24.480Z,101422.44
2022-11-02T01:29:52.372Z,101420.63
2022-11-02T01:32:20.293Z,101419.63
2022-11-02T01:34:48.154Z,101429.31
2022-11-02T01:37:16.089Z,101441.22
2022-11-02T01:39:43.951Z,101450.41
2022-11-02T01:42:19.923Z,101445.59
2022-11-02T01:44:47.832Z,101452.88
2022-11-02T01:47:19.535Z,101445.28
2022-11-02T01:49:48.961Z,101443.06
2022-11-02T01:52:18.276Z,101449.66
2022-11-02T01:54:48.746Z,101454.66
2022-11-02T01:57:19.050Z,101461.13
2022-11-02T01:59:50.935Z,101459.53
2022-11-02T02:02:19.747Z,101457.00
2022-11-02T02:04:50.464Z,101457.06
2022-11-02T02:07:18.374Z,101456.41
2022-11-02T02:09:48.760Z,101454.91
2022-11-02T02:12:19.289Z,101450.84
2022-11-02T02:14:48.552Z,101453.13
2022-11-02T02:17:36.159Z,101452.63
2022-11-02T02:20:06.432Z,101459.19
2022-11-02T02:22:48.219Z,101454.91
2022-11-02T02:25:45.699Z,101453.44
2022-11-02T02:28:19.732Z,101458.66
2022-11-02T02:30:50.182Z,101456.78
2022-11-02T02:33:21.539Z,101449.50
2022-11-02T02:35:51.239Z,101449.38
2022-11-02T02:38:22.298Z,101446.50
2022-11-02T02:40:52.318Z,101444.63
2022-11-02T02:43:23.193Z,101460.50
2022-11-02T02:45:52.466Z,101458.63
2022-11-02T02:48:21.248Z,101443.47
2022-11-02T02:50:49.939Z,101448.88
2022-11-02T02:53:18.507Z,101449.75
2022-11-02T02:55:47.443Z,101456.91
2022-11-02T02:58:18.260Z,101438.03
2022-11-02T03:00:47.475Z,101469.06
2022-11-02T03:03:18.541Z,101468.75
2022-11-02T03:05:56.583Z,101468.47
2022-11-02T03:08:24.440Z,101472.50
2022-11-02T03:10:54.637Z,101462.28
2022-11-02T03:13:33.857Z,101456.19
2022-11-02T03:16:05.577Z,101450.13
2022-11-02T03:18:37.385Z,101449.25
2022-11-02T03:21:08.207Z,101458.94
2022-11-02T03:23:38.383Z,101462.47
2022-11-02T03:26:07.786Z,101451.72
2022-11-02T03:28:43.511Z,101462.97
2022-11-02T03:31:14.534Z,101462.03
2022-11-02T03:33:45.099Z,101461.94
2022-11-02T03:36:14.187Z,101466.28
2022-11-02T03:38:43.947Z,101460.75
2022-11-02T03:41:12.075Z,101460.53
2022-11-02T03:43:40.135Z,101456.00
2022-11-02T03:46:08.601Z,101468.34
2022-11-02T03:48:39.848Z,101472.72
2022-11-02T03:51:10.129Z,101495.03
2022-11-02T03:53:42.582Z,101484.41
2022-11-02T03:56:12.968Z,101474.91
2022-11-02T03:58:40.809Z,101475.09
2022-11-02T04:01:09.322Z,101487.78
2022-11-02T04:03:40.082Z,101491.47
2022-11-02T04:06:08.339Z,101475.81
2022-11-02T04:08:38.055Z,101466.25
2022-11-02T04:11:23.859Z,101475.22
2022-11-02T04:14:09.336Z,101472.66
2022-11-02T04:16:37.230Z,101477.19
2022-11-02T04:19:24.241Z,101476.31
2022-11-02T04:22:09.637Z,101473.78
2022-11-02T04:24:54.700Z,101468.56
2022-11-02T04:27:22.615Z,101463.44
2022-11-02T04:29:50.501Z,101459.94
2022-11-02T04:32:38.929Z,101469.06
2022-11-02T04:35:08.583Z,101474.72
2022-11-02T04:37:57.519Z,101475.00
2022-11-02T04:40:25.435Z,101476.22
2022-11-02T04:42:53.408Z,101476.28
2022-11-02T04:45:21.274Z,101473.69
2022-11-02T04:47:49.170Z,101470.31
2022-11-02T04:50:18.423Z,101473.97
2022-11-02T04:52:46.310Z,101473.28
2022-11-02T04:55:14.192Z,101468.13
2022-11-02T04:57:45.964Z,101461.91
2022-11-02T05:00:15.547Z,101462.97
2022-11-02T05:02:43.614Z,101459.66
2022-11-02T05:05:12.556Z,101463.28
2022-11-02T05:07:41.823Z,101464.25
2022-11-02T05:10:10.004Z,101458.97
2022-11-02T05:12:37.898Z,101459.91
2022-11-02T05:15:06.515Z,101457.97
2022-11-02T05:17:34.447Z,101462.31
2022-11-02T05:20:02.472Z,101458.84
2022-11-02T05:22:30.376Z,101465.81
2022-11-02T05:24:59.634Z,101460.47
2022-11-02T05:27:27.518Z,101457.78
2022-11-02T05:29:55.393Z,101450.63
2022-11-02T05:32:23.285Z,101455.16
2022-11-02T05:34:51.224Z,101450.63
2022-11-02T05:37:19.108Z,101455.03
2022-11-02T05:39:49.524Z,101459.50
2022-11-02T05:42:19.837Z,101446.16
2022-11-02T05:44:47.655Z,101452.38
2022-11-02T05:47:15.580Z,101443.44
2022-11-02T05:49:43.442Z,101449.63
2022-11-02T05:52:11.569Z,101447.84
2022-11-02T05:54:39.475Z,101438.94
2022-11-02T05:57:07.403Z,101436.28
2022-11-02T05:59:36.656Z,101437.19
2022-11-02T06:02:04.611Z,101430.00
2022-11-02T06:04:32.516Z,101434.41
2022-11-02T06:07:00.399Z,101437.00
2022-11-02T06:09:28.295Z,101429.00
2022-11-02T06:11:57.180Z,101439.69
2022-11-02T06:14:25.051Z,101424.56
2022-11-02T06:16:54.382Z,101419.22
2022-11-02T06:19:23.406Z,101415.75
2022-11-02T06:21:51.281Z,101416.56
2022-11-02T06:24:19.370Z,101421.94
2022-11-02T06:26:47.267Z,101418.34
2022-11-02T06:29:15.191Z,101411.25
2022-11-02T06:31:43.143Z,101403.25
2022-11-02T06:34:12.471Z,101413.91
2022-11-02T06:36:40.395Z,101417.44
2022-11-02T06:39:08.312Z,101414.63
2022-11-02T06:41:36.261Z,101418.97
2022-11-02T06:44:04.203Z,101418.91
2022-11-02T06:46:32.387Z,101419.72
2022-11-02T06:49:00.411Z,101429.47
2022-11-02T06:51:29.853Z,101432.88
2022-11-02T06:53:57.832Z,101434.50
2022-11-02T06:56:25.812Z,101427.31
2022-11-02T06:58:53.716Z,101421.91
2022-11-02T07:01:21.702Z,101418.44
2022-11-02T07:03:49.751Z,101410.44
2022-11-02T07:06:17.668Z,101413.09
2022-11-02T07:08:46.950Z,101417.56
2022-11-02T07:11:16.323Z,101413.03
2022-11-02T07:13:44.305Z,101418.25
2022-11-02T07:16:12.460Z,101423.59
2022-11-02T07:18:40.423Z,101416.38
2022-11-02T07:21:10.573Z,101413.56
2022-11-02T07:23:38.545Z,101420.44
2022-11-02T07:26:07.911Z,101410.59
2022-11-02T07:28:38.126Z,101418.47
2022-11-02T07:31:06.551Z,101408.56
2022-11-02T07:33:34.448Z,101410.28
2022-11-02T07:36:04.072Z,101415.50
2022-11-02T07:38:31.950Z,101419.75
2022-11-02T07:40:59.804Z,101408.97
2022-11-02T07:43:29.135Z,101406.97
2022-11-02T07:45:57.299Z,101412.06
2022-11-02T07:48:25.165Z,101415.34
2022-11-02T07:50:53.439Z,101420.31
2022-11-02T07:53:21.323Z,101414.75
2022-11-02T07:55:49.201Z,101426.88
2022-11-02T07:58:17.160Z,101420.34
2022-11-02T08:00:46.412Z,101412.94
2022-11-02T08:03:14.873Z,101413.59
2022-11-02T08:05:43.256Z,101413.41
2022-11-02T08:08:12.924Z,101416.00
2022-11-02T08:10:40.853Z,101404.38
2022-11-02T08:13:08.871Z,101403.38
2022-11-02T08:15:36.837Z,101404.03
2022-11-02T08:18:07.218Z,101403.81
2022-11-02T08:20:35.858Z,101392.00
2022-11-02T08:23:04.039Z,101402.38
2022-11-02T08:25:31.987Z,101397.63
2022-11-02T08:28:00.051Z,101379.50
2022-11-02T08:30:28.129Z,101376.47
2022-11-02T08:32:57.204Z,101371.56
2022-11-02T08:35:26.762Z,101376.56
2022-11-02T08:37:55.643Z,101354.13
2022-11-02T08:40:23.705Z,101367.81
2022-11-02T08:42:56.328Z,101370.94
2022-11-02T08:45:24.291Z,101361.63
2022-11-02T08:47:52.163Z,101344.41
2022-11-02T08:50:20.075Z,101337.81
2022-11-02T08:52:49.308Z,101338.38
2022-11-02T08:55:17.198Z,101346.00
2022-11-02T08:57:48.185Z,101330.59
2022-11-02T09:00:16.636Z,101316.00
2022-11-02T09:02:44.778Z,101312.13
2022-11-02T09:05:12.714Z,101298.59
2022-11-02T09:07:40.647Z,101287.50
2022-11-02T09:10:10.963Z,101284.50
2022-11-02T09:12:38.814Z,101280.69
2022-11-02T09:15:07.607Z,101281.34
2022-11-02T09:17:35.553Z,101278.31
2022-11-02T09:20:03.434Z,101269.34
2022-11-02T09:22:31.813Z,101249.56
2022-11-02T09:24:59.642Z,101266.16
2022-11-02T09:27:30.178Z,101247.09
2022-11-02T09:29:58.099Z,101238.81
2022-11-02T09:32:26.127Z,101231.09
2022-11-02T09:34:54.145Z,101226.22
2022-11-02T09:37:22.021Z,101224.66
2022-11-02T09:39:49.927Z,101236.59
2022-11-02T09:42:20.100Z,101200.47
2022-11-02T09:44:51.164Z,101191.97
2022-11-02T09:50:10.826Z,101176.44
2022-11-02T09:52:39.331Z,101172.56
2022-11-02T09:55:11.739Z,101168.72
2022-11-02T09:57:39.786Z,101178.22
2022-11-02T10:00:13.587Z,101168.28
2022-11-02T10:02:47.952Z,101157.19
2022-11-02T10:05:25.426Z,101140.22
2022-11-02T10:08:20.773Z,101140.03
2022-11-02T10:10:55.190Z,101135.44
2022-11-02T10:13:27.457Z,101132.47
2022-11-02T10:15:58.077Z,101139.38
2022-11-02T10:18:27.613Z,101128.66
2022-11-02T10:20:57.201Z,101113.13
2022-11-02T10:23:26.873Z,101119.16
2022-11-02T10:25:56.713Z,101112.66
2022-11-02T10:28:27.154Z,101117.84
2022-11-02T10:30:56.996Z,101104.41
2022-11-02T10:33:27.277Z,101092.63
2022-11-02T10:36:19.513Z,101093.91
2022-11-02T10:38:55.220Z,101109.44
2022-11-02T10:41:45.801Z,101112.69
2022-11-02T10:44:26.024Z,101095.31
2022-11-02T10:47:00.691Z,101082.19
2022-11-02T10:49:53.308Z,101079.66
2022-11-02T10:52:21.201Z,101082.69
2022-11-02T10:54:51.032Z,101059.72
2022-11-02T10:57:21.687Z,101058.47
2022-11-02T11:00:10.660Z,101053.00
2022-11-02T11:02:39.952Z,101061.72
2022-11-02T11:05:13.421Z,101046.44
2022-11-02T11:07:44.446Z,101032.19
2022-11-02T11:10:15.293Z,101032.81
2022-11-02T11:12:43.295Z,101028.31
2022-11-02T11:21:06.686Z,101019.41
2022-11-02T11:23:34.695Z,101026.63
2022-11-02T11:26:03.218Z,101013.22
2022-11-02T11:28:33.418Z,101011.47
2022-11-02T11:31:12.461Z,101019.94
2022-11-02T11:33:49.632Z,101016.81
2022-11-02T11:38:54.711Z,101012.91
2022-11-02T11:41:22.645Z,101013.38
2022-11-02T11:43:50.574Z,100984.78
2022-11-02T11:46:18.505Z,101007.66
2022-11-02T11:48:50.139Z,100989.41
2022-11-02T11:51:32.705Z,100990.38
2022-11-02T11:54:30.732Z,100969.72
2022-11-02T11:56:59.207Z,100968.19
2022-11-02T11:59:29.336Z,100946.78
2022-11-02T12:02:00.783Z,100953.31
2022-11-02T12:04:34.463Z,100961.19
2022-11-02T12:08:04.915Z,100937.91
2022-11-02T12:10:44.298Z,100943.69
2022-11-02T12:13:19.894Z,100933.94
2022-11-02T12:15:59.728Z,100928.13
2022-11-02T12:18:35.002Z,100933.06
2022-11-02T12:21:17.653Z,100933.81
2022-11-02T12:24:04.261Z,100928.47
2022-11-02T12:26:37.824Z,100910.59
2022-11-02T12:29:13.155Z,100906.66
2022-11-02T12:31:41.784Z,100892.16
2022-11-02T12:34:21.176Z,100889.28
2022-11-02T12:37:32.692Z,100899.59
2022-11-02T12:39:53.453Z,100893.19
2022-11-02T12:42:27.190Z,100904.16
2022-11-02T12:45:10.733Z,100888.47
2022-11-02T12:47:45.413Z,100877.28
2022-11-02T12:50:17.143Z,100875.47
2022-11-02T12:53:00.271Z,100860.19
2022-11-02T12:55:33.046Z,100842.94
2022-11-02T12:58:06.653Z,100825.75
2022-11-02T13:00:37.564Z,100809.38
2022-11-02T13:03:07.505Z,100812.69
2022-11-02T13:05:37.201Z,100817.31
2022-11-02T13:08:11.256Z,100798.34
2022-11-02T13:10:41.795Z,100775.03
2022-11-02T13:13:11.948Z,100775.69
2022-11-02T13:15:39.809Z,100781.88
2022-11-02T13:18:11.485Z,100784.47
2022-11-02T13:20:42.035Z,100786.00
2022-11-02T13:23:17.078Z,100765.97
2022-11-02T13:25:47.961Z,100781.03
2022-11-02T13:28:18.001Z,100771.81
2022-11-02T13:30:45.852Z,100739.88
2022-11-02T13:33:15.527Z,100742.47
2022-11-02T13:35:43.546Z,100753.84
2022-11-02T13:38:28.926Z,100735.47
2022-11-02T13:41:04.344Z,100728.72
2022-11-02T13:43:56.899Z,100722.50
2022-11-02T13:46:30.979Z,100718.00
2022-11-02T13:49:00.573Z,100732.81
2022-11-02T13:51:32.529Z,100712.06
2022-11-02T13:54:03.048Z,100716.25
2022-11-02T13:56:31.046Z,100696.41
2022-11-02T13:59:00.939Z,100676.00
2022-11-02T14:01:29.515Z,100672.56
2022-11-02T14:04:01.995Z,100673.00
2022-11-02T14:06:31.558Z,100670.38
2022-11-02T14:09:00.366Z,100677.78
2022-11-02T14:11:47.507Z,100663.94
2022-11-02T14:14:24.589Z,100649.25
2022-11-02T14:16:59.089Z,100655.03
2022-11-02T14:19:32.218Z,100658.09
2022-11-02T14:22:13.845Z,100661.09
2022-11-02T14:25:20.234Z,100661.78
2022-11-02T14:27:49.547Z,100655.22
2022-11-02T14:30:45.616Z,100634.97
2022-11-02T14:34:01.191Z,100619.38
2022-11-02T14:36:40.932Z,100596.97
2022-11-02T14:39:14.807Z,100602.78
2022-11-02T14:42:08.831Z,100597.09
2022-11-02T14:44:46.646Z,100594.41
2022-11-02T14:47:14.831Z,100576.16
2022-11-02T14:49:48.588Z,100586.69
2022-11-02T14:52:25.366Z,100576.91
2022-11-02T14:54:54.667Z,100588.50
2022-11-02T14:57:25.441Z,100605.56
2022-11-02T14:59:55.372Z,100597.41
2022-11-02T15:02:24.387Z,100601.47
2022-11-02T15:04:53.092Z,100600.28
2022-11-02T15:07:21.731Z,100585.56
2022-11-02T15:09:54.328Z,100592.94
2022-11-02T15:12:29.433Z,100592.19
2022-11-02T15:15:03.097Z,100589.63
2022-11-02T15:17:53.502Z,100591.44
2022-11-02T15:20:27.470Z,100572.69
2022-11-02T15:22:56.232Z,100577.16
2022-11-02T15:25:27.094Z,100552.97
2022-11-02T15:27:56.888Z,100561.66
2022-11-02T15:30:28.521Z,100570.56
2022-11-02T15:33:01.924Z,100556.09
2022-11-02T15:35:31.928Z,100552.53
2022-11-02T15:38:16.938Z,100573.88
2022-11-02T15:40:48.387Z,100559.41
2022-11-02T15:43:25.190Z,100546.97
2022-11-02T15:46:00.366Z,100558.53
2022-11-02T15:48:37.872Z,100532.59
2022-11-02T15:51:09.348Z,100547.06
2022-11-02T15:54:15.903Z,100542.56
2022-11-02T15:56:48.118Z,100531.22
2022-11-02T15:59:32.780Z,100527.88
2022-11-02T16:02:18.788Z,100508.25
2022-11-02T16:04:47.220Z,100508.34
2022-11-02T16:07:17.394Z,100509.41
2022-11-02T16:09:45.970Z,100504.81
2022-11-02T16:12:16.755Z,100508.25
2022-11-02T16:14:45.101Z,100495.72
2022-11-02T16:17:24.699Z,100476.00
2022-11-02T16:19:52.716Z,100463.66
2022-11-02T16:22:27.386Z,100449.41
2022-11-02T16:24:55.373Z,100459.91
2022-11-02T16:27:23.547Z,100467.09
2022-11-02T16:29:52.429Z,100451.75
2022-11-02T16:32:20.339Z,100448.97
2022-11-02T16:34:49.568Z,100440.72
2022-11-02T16:37:18.800Z,100478.44
2022-11-02T16:39:47.717Z,100465.28
2022-11-02T16:42:17.934Z,100457.88
2022-11-02T16:44:57.248Z,100465.03
2022-11-02T16:47:36.481Z,100473.31
2022-11-02T16:50:17.764Z,100471.03
2022-11-02T16:52:47.903Z,100478.13
2022-11-02T16:55:31.381Z,100508.34
2022-11-02T16:57:59.501Z,100496.97
2022-11-02T17:00:27.494Z,100519.97
2022-11-02T17:02:55.421Z,100534.72
2022-11-02T17:05:25.564Z,100533.34
2022-11-02T17:07:58.562Z,100535.34
2022-11-02T17:10:27.487Z,100544.25
2022-11-02T17:12:55.389Z,100535.34
2022-11-02T17:15:24.068Z,100546.91
2022-11-02T17:17:51.972Z,100543.19
2022-11-02T17:20:24.838Z,100545.31
2022-11-02T17:22:57.135Z,100536.63
2022-11-02T17:25:26.159Z,100555.69
2022-11-02T17:27:54.769Z,100531.13
2022-11-02T17:30:41.659Z,100547.03
2022-11-02T17:33:10.170Z,100554.78
2022-11-02T17:35:44.015Z,100548.88
2022-11-02T17:38:11.910Z,100552.41
2022-11-02T17:40:39.799Z,100537.72
2022-11-02T17:43:06.693Z,100551.38
2022-11-02T17:45:37.344Z,100551.78
2022-11-02T17:48:06.242Z,100556.16
2022-11-02T17:50:35.184Z,100554.56
2022-11-02T17:53:05.101Z,100551.88
2022-11-02T17:55:34.059Z,100555.50
2022-11-02T17:58:02.038Z,100547.38
2022-11-02T18:00:29.947Z,100555.22
2022-11-02T18:02:58.875Z,100555.78
2022-11-02T18:05:28.323Z,100540.59
2022-11-02T18:07:56.524Z,100545.84
2022-11-02T18:10:26.683Z,100540.59
2022-11-02T18:12:54.612Z,100547.84
2022-11-02T18:15:23.919Z,100552.13
2022-11-02T18:17:51.752Z,100547.47
2022-11-02T18:20:19.950Z,100548.97
2022-11-02T18:22:47.867Z,100561.19
2022-11-02T18:25:16.768Z,100565.50
2022-11-02T18:27:46.101Z,100561.00
2022-11-02T18:30:15.267Z,100559.16
2022-11-02T18:32:44.071Z,100567.78
2022-11-02T18:35:13.632Z,100561.25
2022-11-02T18:37:41.620Z,100561.06
2022-11-02T18:40:11.475Z,100560.00
2022-11-02T18:42:39.503Z,100563.34
2022-11-02T18:45:09.617Z,100574.78
2022-11-02T18:47:37.892Z,100560.47
2022-11-02T18:50:06.259Z,100555.00
2022-11-02T18:52:34.166Z,100546.13
2022-11-02T18:55:03.824Z,100538.28
2022-11-02T18:57:31.716Z,100540.00
2022-11-02T18:59:59.684Z,100540.22
2022-11-02T19:02:29.271Z,100534.94
2022-11-02T19:04:57.498Z,100546.63
2022-11-02T19:07:42.879Z,100553.78
2022-11-02T19:10:10.955Z,100557.53
2022-11-02T19:12:38.864Z,100555.06
2022-11-02T19:15:07.599Z,100550.53
2022-11-02T19:17:36.967Z,100547.97
2022-11-02T19:20:05.577Z,100551.63
2022-11-02T19:22:33.447Z,100557.06
2022-11-02T19:25:02.357Z,100552.69
2022-11-02T19:27:30.238Z,100552.69
2022-11-02T19:29:58.193Z,100541.00
2022-11-02T19:32:26.113Z,100539.38
2022-11-02T19:34:55.439Z,100551.53
2022-11-02T19:37:23.303Z,100550.53
2022-11-02T19:39:51.173Z,100557.75
2022-11-02T19:42:19.064Z,100540.81
2022-11-02T19:44:46.958Z,100544.25
2022-11-02T19:47:14.907Z,100544.25
2022-11-02T19:49:42.792Z,100552.16
2022-11-02T19:52:12.150Z,100551.22
2022-11-02T19:54:40.065Z,100554.53
2022-11-02T19:57:08.018Z,100556.16
2022-11-02T19:59:36.175Z,100558.84
2022-11-02T20:02:04.099Z,100552.44
2022-11-02T20:04:34.598Z,100559.28
2022-11-02T20:07:05.982Z,100526.59
2022-11-02T20:09:35.256Z,100539.38
2022-11-02T20:12:04.891Z,100551.72
2022-11-02T20:14:34.132Z,100546.16
2022-11-02T20:17:25.281Z,100551.31
2022-11-02T20:19:50.091Z,100542.31
2022-11-02T20:22:18.770Z,100544.81
2022-11-02T20:24:48.061Z,100539.63
2022-11-02T20:27:16.040Z,100548.53
2022-11-02T20:29:43.941Z,100538.78
2022-11-02T20:32:12.603Z,100536.09
2022-11-02T20:34:40.619Z,100530.75
2022-11-02T20:37:08.492Z,100537.06
2022-11-02T20:39:36.406Z,100531.81
2022-11-02T20:42:05.902Z,100540.81
2022-11-02T20:44:33.750Z,100542.63
2022-11-02T20:47:01.637Z,100530.22
2022-11-02T20:49:49.245Z,100541.88
2022-11-02T20:52:24.547Z,100541.88
2022-11-02T20:54:52.424Z,100541.00
2022-11-02T20:57:22.467Z,100533.84
2022-11-02T20:59:50.549Z,100527.63
2022-11-02T21:02:18.486Z,100544.66
2022-11-02T21:04:46.467Z,100545.16
2022-11-02T21:07:14.442Z,100562.53
2022-11-02T21:09:42.295Z,100557.19
2022-11-02T21:12:28.551Z,100549.16
2022-11-02T21:14:57.806Z,100555.56
2022-11-02T21:17:26.125Z,100557.47
2022-11-02T21:19:58.162Z,100557.69
2022-11-02T21:22:36.025Z,100558.53
2022-11-02T21:25:04.311Z,100555.97
2022-11-02T21:27:32.204Z,100564.19
2022-11-02T21:30:01.596Z,100557.97
2022-11-02T21:32:29.578Z,100560.94
2022-11-02T21:34:57.688Z,100558.69
2022-11-02T21:37:25.637Z,100562.22
2022-11-02T21:39:53.539Z,100556.97
2022-11-02T21:42:21.431Z,100564.22
2022-11-02T21:44:49.508Z,100558.88
2022-11-02T21:47:18.841Z,100557.28
2022-11-02T21:49:47.061Z,100558.22
2022-11-02T21:52:15.012Z,100565.19
2022-11-02T21:54:42.920Z,100565.19
2022-11-02T21:57:10.769Z,100565.84
2022-11-02T21:59:38.636Z,100570.25
2022-11-02T22:02:05.617Z,100555.91
2022-11-02T22:04:35.016Z,100551.53
2022-11-02T22:07:02.898Z,100546.06
2022-11-02T22:09:30.789Z,100533.53
2022-11-02T22:12:16.177Z,100544.44
2022-11-02T22:14:44.855Z,100545.31
2022-11-02T22:17:22.004Z,100545.31
2022-11-02T22:20:02.302Z,100543.69
2022-11-02T22:22:30.314Z,100542.81
2022-11-02T22:24:58.209Z,100540.13
2022-11-02T22:27:27.707Z,100542.94
2022-11-02T22:29:55.669Z,100545.59
2022-11-02T22:32:23.551Z,100547.22
2022-11-02T22:34:51.488Z,100542.81
2022-11-02T22:37:38.698Z,100548.16
2022-11-02T22:40:07.378Z,100544.72
2022-11-02T22:42:39.709Z,100544.72
2022-11-02T22:45:10.992Z,100543.91
2022-11-02T22:47:38.835Z,100535.00
2022-11-02T22:50:07.886Z,100544.84
2022-11-02T22:52:37.240Z,100534.03
2022-11-02T22:55:05.565Z,100534.13
2022-11-02T22:57:33.459Z,100525.34
2022-11-02T23:00:01.360Z,100515.50
2022-11-02T23:02:29.385Z,100528.97
2022-11-02T23:04:57.315Z,100516.75
2022-11-02T23:07:25.186Z,100519.53
2022-11-02T23:09:54.420Z,100525.00
2022-11-02T23:12:21.289Z,100510.66
2022-11-02T23:14:49.174Z,100504.34
2022-11-02T23:17:17.035Z,100506.91
2022-11-02T23:19:44.901Z,100503.47
2022-11-02T23:22:33.095Z,100492.66
2022-11-02T23:25:12.574Z,100493.66
2022-11-02T23:27:55.768Z,100492.66
2022-11-02T23:30:40.783Z,100499.84
2022-11-02T23:33:09.051Z,100489.25
2022-11-02T23:35:54.382Z,100481.97
2022-11-02T23:38:22.241Z,100480.16
2022-11-02T23:40:54.458Z,100478.22
2022-11-02T23:43:22.346Z,100472.75
2022-11-02T23:45:50.212Z,100470.00
2022-11-02T23:48:18.137Z,100466.28
2022-11-02T23:51:03.659Z,100458.25
2022-11-02T23:53:49.066Z,100454.69
2022-11-02T23:56:35.818Z,100448.78
2022-11-02T23:59:12.643Z,100451.00
